Terminal Aerodrome Forecast
Issued by NWS Wakefield, VA

Home | Current Version | Previous Version | Text Only | Print | Product List | Glossary On
Versions: 1 2 3 4 5 6 7 8 9 10 11 12 13 14
109
FTUS41 KAKQ 270520
TAFRIC
TAF
KRIC 270520Z 2706/2806 09004KT P6SM SCT015 BKN080
     FM271000 18005KT P6SM SCT015 BKN060
     FM271300 19006KT P6SM BKN025
     FM271500 19007KT P6SM BKN045
     FM271900 22009KT P6SM BKN080
     FM280000 19005KT P6SM BKN150=

USA.gov is the U.S. government's official web portal to all federal, state and local government web resources and services.